createdAt,value
2023-05-02T00:00:18.570Z,101101.56
2023-05-02T00:02:48.907Z,101094.31
2023-05-02T00:05:19.044Z,101085.88
2023-05-02T00:07:49.979Z,101087.84
2023-05-02T00:10:23.330Z,101083.41
2023-05-02T00:12:53.881Z,101089.03
2023-05-02T00:15:23.521Z,101080.59
2023-05-02T00:17:53.712Z,101081.75
2023-05-02T00:20:24.407Z,101078.13
2023-05-02T00:22:54.353Z,101085.31
2023-05-02T00:25:25.930Z,101085.31
2023-05-02T00:27:55.412Z,101082.84
2023-05-02T00:30:25.637Z,101085.66
2023-05-02T00:32:56.188Z,101091.28
2023-05-02T00:35:26.287Z,101086.03
2023-05-02T00:37:56.411Z,101079.56
2023-05-02T00:40:28.764Z,101076.31
2023-05-02T00:42:59.602Z,101074.22
2023-05-02T00:45:30.182Z,101075.75
2023-05-02T00:48:00.521Z,101076.47
2023-05-02T00:50:33.083Z,101079.66
2023-05-02T00:53:05.953Z,101086.47
2023-05-02T00:55:37.961Z,101084.38
2023-05-02T00:58:13.957Z,101089.53
2023-05-02T01:01:05.385Z,101084.25
2023-05-02T01:03:47.052Z,101081.00
2023-05-02T01:06:48.734Z,101086.53
2023-05-02T01:09:37.069Z,101087.22
2023-05-02T01:12:26.564Z,101094.41
2023-05-02T01:14:59.578Z,101086.66
2023-05-02T01:17:35.478Z,101092.66
2023-05-02T01:20:12.498Z,101088.59
2023-05-02T01:22:44.282Z,101096.56
2023-05-02T01:25:34.087Z,101093.28
2023-05-02T01:28:23.554Z,101094.81
2023-05-02T01:30:58.723Z,101089.88
2023-05-02T01:33:31.001Z,101090.22
2023-05-02T01:36:03.309Z,101084.13
2023-05-02T01:38:37.266Z,101096.56
2023-05-02T01:41:09.419Z,101094.50
2023-05-02T01:43:42.658Z,101094.50
2023-05-02T01:46:17.603Z,101095.66
2023-05-02T01:48:51.315Z,101095.66
2023-05-02T01:51:25.900Z,101093.19
2023-05-02T01:53:57.409Z,101099.97
2023-05-02T01:56:28.397Z,101102.78
2023-05-02T01:59:01.748Z,101109.59
2023-05-02T02:01:35.068Z,101115.22
2023-05-02T02:04:09.428Z,101121.22
2023-05-02T02:06:40.322Z,101118.75
2023-05-02T02:09:11.479Z,101116.28
2023-05-02T02:11:54.697Z,101111.03
2023-05-02T02:14:30.717Z,101113.38
2023-05-02T02:17:08.530Z,101102.03
2023-05-02T02:19:42.553Z,101110.81
2023-05-02T02:22:16.926Z,101104.72
2023-05-02T02:24:51.001Z,101116.34
2023-05-02T02:27:22.910Z,101114.22
2023-05-02T02:29:52.732Z,101125.84
2023-05-02T02:32:25.182Z,101114.94
2023-05-02T02:34:55.664Z,101112.84
2023-05-02T02:37:33.497Z,101120.81
2023-05-02T02:40:14.581Z,101111.44
2023-05-02T02:42:57.771Z,101108.53
2023-05-02T02:45:40.600Z,101114.84
2023-05-02T02:48:23.451Z,101113.56
2023-05-02T02:51:14.405Z,101120.34
2023-05-02T02:54:01.162Z,101119.56
2023-05-02T02:56:41.908Z,101128.44
2023-05-02T02:59:21.964Z,101127.63
2023-05-02T03:02:09.305Z,101141.31
2023-05-02T03:04:45.714Z,101145.75
2023-05-02T03:07:16.727Z,101144.94
2023-05-02T03:09:49.661Z,101145.41
2023-05-02T03:12:19.776Z,101142.63
2023-05-02T03:14:50.280Z,101140.25
2023-05-02T03:17:20.728Z,101136.25
2023-05-02T03:19:53.005Z,101145.16
2023-05-02T03:22:22.849Z,101144.00
2023-05-02T03:24:53.193Z,101151.25
2023-05-02T03:27:23.298Z,101151.72
2023-05-02T03:29:53.432Z,101150.56
2023-05-02T03:32:23.148Z,101153.00
2023-05-02T03:34:58.890Z,101148.19
2023-05-02T03:37:29.478Z,101150.66
2023-05-02T03:40:00.179Z,101154.66
2023-05-02T03:42:30.736Z,101160.63
2023-05-02T03:45:00.992Z,101152.06
2023-05-02T03:47:31.602Z,101154.06
2023-05-02T03:50:04.166Z,101153.59
2023-05-02T03:52:35.413Z,101161.22
2023-05-02T03:55:06.440Z,101155.13
2023-05-02T03:57:36.454Z,101155.50
2023-05-02T04:00:07.779Z,101157.47
2023-05-02T04:02:38.578Z,101166.25
2023-05-02T04:05:11.520Z,101162.63
2023-05-02T04:07:41.714Z,101169.78
2023-05-02T04:10:17.173Z,101166.50
2023-05-02T04:12:47.431Z,101175.28
2023-05-02T04:15:18.104Z,101173.63
2023-05-02T04:17:48.496Z,101168.50
2023-05-02T04:20:21.155Z,101167.31
2023-05-02T04:22:51.169Z,101171.41
2023-05-02T04:25:21.739Z,101167.91
2023-05-02T04:27:51.952Z,101177.63
2023-05-02T04:30:23.018Z,101176.91
2023-05-02T04:32:54.046Z,101172.94
2023-05-02T04:35:27.242Z,101183.81
2023-05-02T04:37:57.604Z,101181.47
2023-05-02T04:40:27.462Z,101181.94
2023-05-02T04:42:57.806Z,101189.19
2023-05-02T04:45:28.768Z,101181.69
2023-05-02T04:47:59.341Z,101186.97
2023-05-02T04:50:32.767Z,101184.63
2023-05-02T04:53:03.146Z,101189.53
2023-05-02T04:55:33.067Z,101191.28
2023-05-02T04:58:05.021Z,101188.13
2023-05-02T05:00:35.316Z,101193.84
2023-05-02T05:03:05.187Z,101200.41
2023-05-02T05:05:37.764Z,101194.53
2023-05-02T05:08:08.406Z,101194.66
2023-05-02T05:10:39.084Z,101187.63
2023-05-02T05:13:09.470Z,101196.66
2023-05-02T05:15:39.778Z,101191.59
2023-05-02T05:18:09.905Z,101200.25
2023-05-02T05:20:41.779Z,101189.56
2023-05-02T05:23:12.104Z,101195.75
2023-05-02T05:25:45.046Z,101199.94
2023-05-02T05:28:15.450Z,101200.50
2023-05-02T05:30:45.670Z,101202.72
2023-05-02T05:33:16.041Z,101199.66
2023-05-02T05:35:48.262Z,101202.66
2023-05-02T05:38:18.472Z,101205.19
2023-05-02T05:40:52.447Z,101216.72
2023-05-02T05:43:22.672Z,101204.00
2023-05-02T05:45:55.391Z,101197.75
2023-05-02T05:48:26.458Z,101200.28
2023-05-02T05:50:58.094Z,101197.22
2023-05-02T05:53:28.414Z,101189.31
2023-05-02T05:55:58.758Z,101201.59
2023-05-02T05:58:29.129Z,101195.31
2023-05-02T06:00:59.434Z,101202.69
2023-05-02T06:03:29.853Z,101198.41
2023-05-02T06:06:01.856Z,101193.34
2023-05-02T06:08:32.158Z,101200.34
2023-05-02T06:11:02.414Z,101205.34
2023-05-02T06:13:32.371Z,101205.09
2023-05-02T06:16:04.861Z,101202.81
2023-05-02T06:18:34.898Z,101212.16
2023-05-02T06:21:21.544Z,101207.06
2023-05-02T06:23:52.023Z,101203.50
2023-05-02T06:26:22.595Z,101216.50
2023-05-02T06:28:52.798Z,101203.66
2023-05-02T06:31:23.210Z,101209.03
2023-05-02T06:33:53.568Z,101210.75
2023-05-02T06:36:25.440Z,101212.47
2023-05-02T06:38:55.718Z,101205.28
2023-05-02T06:41:25.463Z,101205.38
2023-05-02T06:43:56.307Z,101210.72
2023-05-02T06:46:26.544Z,101209.66
2023-05-02T06:48:56.834Z,101208.53
2023-05-02T06:51:29.058Z,101204.63
2023-05-02T06:53:59.056Z,101200.69
2023-05-02T06:56:30.059Z,101199.56
2023-05-02T06:59:00.462Z,101202.09
2023-05-02T07:01:30.290Z,101192.50
2023-05-02T07:04:00.559Z,101195.84
2023-05-02T07:06:33.735Z,101192.34
2023-05-02T07:09:04.087Z,101193.25
2023-05-02T07:11:33.941Z,101198.59
2023-05-02T07:14:04.543Z,101196.31
2023-05-02T07:16:35.763Z,101193.22
2023-05-02T07:19:07.346Z,101196.91
2023-05-02T07:21:39.088Z,101210.34
2023-05-02T07:24:09.364Z,101202.78
2023-05-02T07:26:39.713Z,101195.16
2023-05-02T07:29:10.063Z,101201.72
2023-05-02T07:31:40.213Z,101205.06
2023-05-02T07:34:10.449Z,101206.75
2023-05-02T07:36:42.066Z,101212.09
2023-05-02T07:39:12.638Z,101196.78
2023-05-02T07:41:42.890Z,101201.28
2023-05-02T07:44:13.614Z,101192.06
2023-05-02T07:46:43.978Z,101185.66
2023-05-02T07:49:14.762Z,101189.75
2023-05-02T07:51:47.639Z,101187.00
2023-05-02T07:54:21.721Z,101188.25
2023-05-02T07:56:51.568Z,101184.69
2023-05-02T07:59:21.175Z,101178.28
2023-05-02T08:01:51.027Z,101186.00
2023-05-02T08:04:21.165Z,101178.41
2023-05-02T08:06:52.977Z,101180.47
2023-05-02T08:09:23.369Z,101171.59
2023-05-02T08:11:53.644Z,101176.50
2023-05-02T08:14:24.104Z,101172.09
2023-05-02T08:16:54.352Z,101176.19
2023-05-02T08:19:23.870Z,101170.97
2023-05-02T08:21:57.041Z,101172.22
2023-05-02T08:24:27.320Z,101177.50
2023-05-02T08:26:57.140Z,101175.09
2023-05-02T08:29:27.507Z,101174.72
2023-05-02T08:31:57.237Z,101168.69
2023-05-02T08:34:27.845Z,101164.25
2023-05-02T08:36:59.715Z,101164.72
2023-05-02T08:39:30.003Z,101170.41
2023-05-02T08:41:59.537Z,101176.53
2023-05-02T08:44:29.738Z,101177.75
2023-05-02T08:47:03.190Z,101163.66
2023-05-02T08:49:35.424Z,101162.13
2023-05-02T08:52:12.312Z,101160.56
2023-05-02T08:54:43.376Z,101159.34
2023-05-02T08:57:13.306Z,101159.81
2023-05-02T08:59:45.519Z,101158.22
2023-05-02T09:02:28.469Z,101154.63
2023-05-02T09:05:06.459Z,101146.53
2023-05-02T09:07:48.833Z,101150.66
2023-05-02T09:10:18.934Z,101144.59
2023-05-02T09:12:49.284Z,101149.50
2023-05-02T09:15:20.963Z,101150.75
2023-05-02T09:17:52.214Z,101153.16
2023-05-02T09:20:22.256Z,101140.66
2023-05-02T09:22:55.245Z,101147.16
2023-05-02T09:25:26.417Z,101143.09
2023-05-02T09:27:57.615Z,101143.53
2023-05-02T09:30:29.094Z,101152.84
2023-05-02T09:32:59.620Z,101154.84
2023-05-02T09:35:30.027Z,101146.34
2023-05-02T09:38:02.354Z,101148.00
2023-05-02T09:40:33.349Z,101149.63
2023-05-02T09:43:17.473Z,101152.06
2023-05-02T09:46:00.970Z,101156.94
2023-05-02T09:48:33.362Z,101154.09
2023-05-02T09:51:03.647Z,101161.38
2023-05-02T09:53:47.494Z,101159.34
2023-05-02T09:56:18.574Z,101158.16
2023-05-02T09:58:49.385Z,101154.53
2023-05-02T10:01:20.935Z,101151.31
2023-05-02T10:03:51.904Z,101151.31
2023-05-02T10:06:23.491Z,101156.16
2023-05-02T10:08:55.411Z,101152.13
2023-05-02T10:11:26.496Z,101153.69
2023-05-02T10:13:56.666Z,101153.69
2023-05-02T10:16:33.608Z,101151.69
2023-05-02T10:19:11.993Z,101146.41
2023-05-02T10:21:46.218Z,101150.06
2023-05-02T10:24:19.204Z,101144.00
2023-05-02T10:26:50.651Z,101142.81
2023-05-02T10:29:21.086Z,101133.13
2023-05-02T10:31:52.462Z,101137.19
2023-05-02T10:34:24.645Z,101136.00
2023-05-02T10:36:55.049Z,101126.31
2023-05-02T10:39:28.176Z,101134.41
2023-05-02T10:42:02.643Z,101136.88
2023-05-02T10:44:37.672Z,101140.50
2023-05-02T10:47:22.729Z,101130.81
2023-05-02T10:49:54.699Z,101138.50
2023-05-02T10:52:35.027Z,101135.28
2023-05-02T10:55:21.712Z,101126.78
2023-05-02T10:58:24.416Z,101136.88
2023-05-02T11:00:54.925Z,101127.94
2023-05-02T11:04:00.009Z,101138.06
2023-05-02T11:06:33.042Z,101119.44
2023-05-02T11:09:37.813Z,101136.88
2023-05-02T11:12:10.884Z,101128.38
2023-05-02T11:14:51.083Z,101132.44
2023-05-02T11:17:21.722Z,101120.31
2023-05-02T11:20:32.453Z,101120.31
2023-05-02T11:23:28.196Z,101114.66
2023-05-02T11:26:00.838Z,101129.16
2023-05-02T11:29:00.229Z,101123.50
2023-05-02T11:32:07.425Z,101125.09
2023-05-02T11:34:47.039Z,101116.59
2023-05-02T11:37:18.065Z,101126.31
2023-05-02T11:39:48.328Z,101122.66
2023-05-02T11:42:42.242Z,101119.84
2023-05-02T11:45:16.039Z,101104.03
2023-05-02T11:47:47.917Z,101097.56
2023-05-02T11:50:18.656Z,101104.03
2023-05-02T11:52:49.301Z,101099.59
2023-05-02T11:55:20.182Z,101098.75
2023-05-02T11:57:51.067Z,101092.72
2023-05-02T12:00:30.582Z,101096.34
2023-05-02T12:03:00.931Z,101096.34
2023-05-02T12:05:33.165Z,101095.56
2023-05-02T12:08:03.688Z,101102.00
2023-05-02T12:10:40.795Z,101093.53
2023-05-02T12:13:12.034Z,101094.72
2023-05-02T12:15:44.369Z,101088.25
2023-05-02T12:18:16.269Z,101095.91
2023-05-02T12:20:47.499Z,101100.78
2023-05-02T12:23:17.803Z,101090.66
2023-05-02T12:25:47.504Z,101095.13
2023-05-02T12:28:19.789Z,101095.13
2023-05-02T12:30:53.874Z,101091.44
2023-05-02T12:33:23.942Z,101091.84
2023-05-02T12:35:54.440Z,101094.69
2023-05-02T12:38:26.243Z,101099.53
2023-05-02T12:40:58.823Z,101104.38
2023-05-02T12:43:29.334Z,101102.75
2023-05-02T12:46:16.301Z,101100.75
2023-05-02T12:48:46.935Z,101105.13
2023-05-02T12:51:26.534Z,101107.16
2023-05-02T12:53:57.105Z,101105.09
2023-05-02T12:56:28.177Z,101103.47
2023-05-02T12:59:01.401Z,101112.75
2023-05-02T13:01:36.307Z,101111.91
2023-05-02T13:04:07.369Z,101112.31
2023-05-02T13:06:38.477Z,101113.91
2023-05-02T13:09:08.518Z,101107.41
2023-05-02T13:11:39.691Z,101104.56
2023-05-02T13:14:09.507Z,101105.78
2023-05-02T13:16:41.758Z,101116.28
2023-05-02T13:19:12.234Z,101113.84
2023-05-02T13:21:42.457Z,101116.69
2023-05-02T13:24:12.203Z,101109.38
2023-05-02T13:26:42.365Z,101115.41
2023-05-02T13:29:13.118Z,101115.41
2023-05-02T13:31:44.203Z,101116.59
2023-05-02T13:34:14.589Z,101121.84
2023-05-02T13:36:46.740Z,101125.06
2023-05-02T13:39:17.082Z,101120.59
2023-05-02T13:41:46.932Z,101126.25
2023-05-02T13:44:17.277Z,101126.66
2023-05-02T13:46:49.107Z,101133.50
2023-05-02T13:49:19.640Z,101131.88
2023-05-02T13:51:50.604Z,101128.59
2023-05-02T13:54:21.363Z,101135.47
2023-05-02T13:56:51.860Z,101138.66
2023-05-02T13:59:22.265Z,101147.56
2023-05-02T14:01:54.586Z,101145.06
2023-05-02T14:04:25.298Z,101149.91
2023-05-02T14:06:55.706Z,101143.81
2023-05-02T14:09:25.805Z,101156.72
2023-05-02T14:11:56.336Z,101165.59
2023-05-02T14:14:26.265Z,101167.16
2023-05-02T14:16:58.143Z,101165.50
2023-05-02T14:19:28.331Z,101161.44
2023-05-02T14:21:58.474Z,101161.00
2023-05-02T14:24:28.703Z,101159.38
2023-05-02T14:26:58.892Z,101159.75
2023-05-02T14:29:29.372Z,101156.13
2023-05-02T14:32:01.055Z,101158.50
2023-05-02T14:34:31.539Z,101153.25
2023-05-02T14:37:01.979Z,101160.09
2023-05-02T14:39:32.237Z,101162.47
2023-05-02T14:42:03.702Z,101162.03
2023-05-02T14:44:34.316Z,101170.53
2023-05-02T14:47:06.592Z,101167.63
2023-05-02T14:49:37.258Z,101167.19
2023-05-02T14:52:08.571Z,101161.09
2023-05-02T14:54:38.929Z,101168.34
2023-05-02T14:57:09.372Z,101165.06
2023-05-02T14:59:40.737Z,101169.06
2023-05-02T15:02:13.341Z,101168.66
2023-05-02T15:04:43.288Z,101173.50
2023-05-02T15:07:13.886Z,101168.56
2023-05-02T15:09:43.959Z,101171.41
2023-05-02T15:12:14.344Z,101173.81
2023-05-02T15:14:43.970Z,101171.34
2023-05-02T15:17:16.423Z,101177.00
2023-05-02T15:19:46.391Z,101176.59
2023-05-02T15:22:18.749Z,101175.75
2023-05-02T15:24:48.665Z,101176.16
2023-05-02T15:27:18.800Z,101179.34
2023-05-02T15:29:49.057Z,101176.91
2023-05-02T15:32:22.000Z,101178.09
2023-05-02T15:34:52.724Z,101178.00
2023-05-02T15:37:22.905Z,101179.19
2023-05-02T15:39:52.998Z,101180.38
2023-05-02T15:42:23.142Z,101175.50
2023-05-02T15:44:54.461Z,101175.50
2023-05-02T15:47:27.490Z,101179.88
2023-05-02T15:49:58.672Z,101187.53
2023-05-02T15:52:28.930Z,101190.72
2023-05-02T15:54:59.421Z,101189.13
2023-05-02T15:57:30.013Z,101197.16
2023-05-02T15:59:59.948Z,101187.03
2023-05-02T16:02:32.900Z,101185.41
2023-05-02T16:05:03.067Z,101186.97
2023-05-02T16:07:33.349Z,101185.34
2023-05-02T16:10:03.526Z,101186.53
2023-05-02T16:12:34.248Z,101188.56
2023-05-02T16:15:04.282Z,101191.72
2023-05-02T16:17:36.936Z,101190.94
2023-05-02T16:20:08.978Z,101191.28
2023-05-02T16:22:40.407Z,101193.31
2023-05-02T16:25:10.976Z,101195.69
2023-05-02T16:27:41.428Z,101206.19
2023-05-02T16:30:13.431Z,101198.06
2023-05-02T16:32:45.492Z,101202.06
2023-05-02T16:35:16.329Z,101206.47
2023-05-02T16:37:46.694Z,101212.13
2023-05-02T16:40:17.203Z,101213.31
2023-05-02T16:42:46.889Z,101212.06
2023-05-02T16:45:16.683Z,101209.22
2023-05-02T16:47:49.427Z,101215.28
2023-05-02T16:50:20.740Z,101217.25
2023-05-02T16:52:51.655Z,101212.38
2023-05-02T16:55:21.899Z,101216.81
2023-05-02T16:57:52.732Z,101219.22
2023-05-02T17:00:25.784Z,101218.38
2023-05-02T17:02:58.585Z,101220.75
2023-05-02T17:05:28.700Z,101224.75
2023-05-02T17:07:59.344Z,101223.97
2023-05-02T17:10:29.367Z,101229.16
2023-05-02T17:13:01.312Z,101230.34
2023-05-02T17:15:31.337Z,101239.22
2023-05-02T17:18:03.414Z,101238.41
2023-05-02T17:20:34.151Z,101235.94
2023-05-02T17:23:04.355Z,101241.13
2023-05-02T17:25:34.484Z,101245.97
2023-05-02T17:28:04.626Z,101247.16
2023-05-02T17:30:35.217Z,101243.88
2023-05-02T17:33:07.015Z,101249.53
2023-05-02T17:35:37.579Z,101260.34
2023-05-02T17:38:07.726Z,101253.88
2023-05-02T17:40:38.383Z,101255.06
2023-05-02T17:43:08.726Z,101265.91
2023-05-02T17:45:39.918Z,101267.94
2023-05-02T17:48:12.598Z,101264.28
2023-05-02T17:50:43.691Z,101267.50
2023-05-02T17:53:15.860Z,101274.31
2023-05-02T17:55:46.350Z,101266.22
2023-05-02T17:58:16.508Z,101272.69
2023-05-02T18:00:46.764Z,101280.69
2023-05-02T18:03:18.952Z,101277.06
2023-05-02T18:05:49.214Z,101281.06
2023-05-02T18:08:19.216Z,101278.25
2023-05-02T18:10:49.909Z,101275.81
2023-05-02T18:13:20.314Z,101291.13
2023-05-02T18:15:59.254Z,101288.28
2023-05-02T18:18:31.530Z,101284.63
2023-05-02T18:21:02.032Z,101295.50
2023-05-02T18:23:32.774Z,101298.66
2023-05-02T18:26:02.581Z,101300.69
2023-05-02T18:28:32.844Z,101303.06
2023-05-02T18:31:04.549Z,101313.56
2023-05-02T18:33:36.221Z,101320.38
2023-05-02T18:36:06.904Z,101321.56
2023-05-02T18:38:37.927Z,101321.56
2023-05-02T18:41:09.861Z,101319.91
2023-05-02T18:43:40.268Z,101318.28
2023-05-02T18:46:12.376Z,101321.09
2023-05-02T18:48:44.207Z,101327.94
2023-05-02T18:51:14.521Z,101327.13
2023-05-02T18:53:44.910Z,101327.47
2023-05-02T18:56:15.800Z,101335.94
2023-05-02T18:58:46.411Z,101339.16
2023-05-02T19:01:17.719Z,101329.88
2023-05-02T19:03:49.861Z,101332.69
2023-05-02T19:06:22.158Z,101336.69
2023-05-02T19:08:53.159Z,101332.25
2023-05-02T19:11:23.224Z,101337.88
2023-05-02T19:13:57.892Z,101342.69
2023-05-02T19:16:29.458Z,101338.22
2023-05-02T19:19:02.608Z,101349.53
2023-05-02T19:21:34.421Z,101349.53
2023-05-02T19:24:04.948Z,101342.25
2023-05-02T19:26:35.106Z,101341.44
2023-05-02T19:29:06.981Z,101339.78
2023-05-02T19:31:37.581Z,101340.63
2023-05-02T19:34:10.145Z,101344.63
2023-05-02T19:36:40.480Z,101343.78
2023-05-02T19:39:11.227Z,101352.25
2023-05-02T19:41:43.325Z,101351.47
2023-05-02T19:44:13.275Z,101346.16
2023-05-02T19:46:43.700Z,101348.19
2023-05-02T19:49:15.641Z,101350.19
2023-05-02T19:51:45.597Z,101345.72
2023-05-02T19:54:15.845Z,101360.66
2023-05-02T19:56:49.174Z,101348.56
2023-05-02T19:59:18.985Z,101355.38
2023-05-02T20:01:50.158Z,101353.75
2023-05-02T20:04:25.501Z,101346.91
2023-05-02T20:06:56.019Z,101347.25
2023-05-02T20:09:26.549Z,101342.44
2023-05-02T20:11:56.949Z,101351.25
2023-05-02T20:14:27.363Z,101348.44
2023-05-02T20:17:01.816Z,101348.44
2023-05-02T20:19:33.841Z,101346.84
2023-05-02T20:22:03.856Z,101352.47
2023-05-02T20:24:34.014Z,101355.31
2023-05-02T20:27:05.210Z,101357.28
2023-05-02T20:29:35.519Z,101360.47
2023-05-02T20:32:06.151Z,101359.66
2023-05-02T20:34:39.601Z,101368.94
2023-05-02T20:37:10.853Z,101366.13
2023-05-02T20:39:41.489Z,101368.13
2023-05-02T20:42:11.948Z,101363.66
2023-05-02T20:44:42.546Z,101376.97
2023-05-02T20:47:13.068Z,101371.31
2023-05-02T20:49:45.047Z,101365.66
2023-05-02T20:52:14.785Z,101368.03
2023-05-02T20:54:45.536Z,101368.50
2023-05-02T20:57:18.469Z,101360.41
2023-05-02T20:59:48.879Z,101364.88
2023-05-02T21:02:18.499Z,101370.84
2023-05-02T21:04:51.727Z,101368.88
2023-05-02T21:07:21.877Z,101372.03
2023-05-02T21:09:52.554Z,101374.84
2023-05-02T21:12:23.484Z,101365.59
2023-05-02T21:14:53.756Z,101368.03
2023-05-02T21:17:26.626Z,101358.75
2023-05-02T21:19:58.958Z,101362.75
2023-05-02T21:22:29.017Z,101355.47
2023-05-02T21:24:58.994Z,101356.66
2023-05-02T21:27:29.383Z,101355.84
2023-05-02T21:29:59.894Z,101350.22
2023-05-02T21:32:30.311Z,101348.56
2023-05-02T21:35:02.649Z,101343.72
2023-05-02T21:37:34.752Z,101347.38
2023-05-02T21:40:05.299Z,101333.63
2023-05-02T21:42:35.636Z,101334.47
2023-05-02T21:45:06.709Z,101330.00
2023-05-02T21:47:36.390Z,101335.63
2023-05-02T21:50:10.096Z,101332.81
2023-05-02T21:52:40.099Z,101334.81
2023-05-02T21:55:11.655Z,101331.97
2023-05-02T21:57:43.888Z,101325.53
2023-05-02T22:00:16.120Z,101325.53
2023-05-02T22:02:46.703Z,101320.25
2023-05-02T22:05:19.432Z,101323.09
2023-05-02T22:07:52.760Z,101322.22
2023-05-02T22:10:23.249Z,101324.25
2023-05-02T22:12:53.538Z,101316.94
2023-05-02T22:15:24.330Z,101333.03
2023-05-02T22:17:55.471Z,101324.97
2023-05-02T22:20:29.041Z,101322.13
2023-05-02T22:22:58.964Z,101322.13
2023-05-02T22:25:29.446Z,101316.88
2023-05-02T22:28:01.467Z,101320.03
2023-05-02T22:30:31.574Z,101324.88
2023-05-02T22:33:02.091Z,101320.03
2023-05-02T22:35:34.400Z,101314.78
2023-05-02T22:38:04.311Z,101313.13
2023-05-02T22:40:35.282Z,101309.50
2023-05-02T22:43:05.631Z,101305.84
2023-05-02T22:45:37.616Z,101301.38
2023-05-02T22:48:08.633Z,101312.66
2023-05-02T22:50:40.667Z,101309.03
2023-05-02T22:53:11.053Z,101309.38
2023-05-02T22:55:41.855Z,101308.59
2023-05-02T22:58:12.182Z,101318.22
2023-05-02T23:00:42.410Z,101314.59
2023-05-02T23:03:12.962Z,101313.75
2023-05-02T23:05:45.034Z,101310.94
2023-05-02T23:08:14.849Z,101312.97
2023-05-02T23:10:44.987Z,101318.59
2023-05-02T23:13:15.941Z,101318.59
2023-05-02T23:15:46.304Z,101326.22
2023-05-02T23:18:17.049Z,101327.06
2023-05-02T23:20:49.864Z,101327.06
2023-05-02T23:23:19.681Z,101329.03
2023-05-02T23:25:49.894Z,101326.22
2023-05-02T23:28:20.165Z,101319.78
2023-05-02T23:30:51.623Z,101319.78
2023-05-02T23:33:21.639Z,101305.22
2023-05-02T23:35:54.488Z,101309.69
2023-05-02T23:38:24.304Z,101310.84
2023-05-02T23:40:55.588Z,101308.03
2023-05-02T23:43:26.364Z,101305.22
2023-05-02T23:45:56.063Z,101306.03
2023-05-02T23:48:26.298Z,101308.84
2023-05-02T23:50:58.259Z,101313.69
2023-05-02T23:53:28.636Z,101309.22
2023-05-02T23:56:00.684Z,101310.41
2023-05-02T23:58:30.972Z,101308.41
